sensor_id;sensor_type;location;lat;lon;timestamp;P1;durP1;ratioP1;P2;durP2;ratioP2
14088;SDS011;7120;52.890;6.040;2023-08-01T00:00:34;12.47;;;4.70;;
14088;SDS011;7120;52.890;6.040;2023-08-01T00:02:59;11.43;;;4.27;;
14088;SDS011;7120;52.890;6.040;2023-08-01T00:05:25;12.13;;;4.87;;
14088;SDS011;7120;52.890;6.040;2023-08-01T00:07:51;12.77;;;4.93;;
14088;SDS011;7120;52.890;6.040;2023-08-01T00:10:19;10.50;;;4.83;;
14088;SDS011;7120;52.890;6.040;2023-08-01T00:12:44;12.30;;;4.67;;
14088;SDS011;7120;52.890;6.040;2023-08-01T00:15:10;14.13;;;5.13;;
14088;SDS011;7120;52.890;6.040;2023-08-01T00:17:35;14.93;;;5.07;;
14088;SDS011;7120;52.890;6.040;2023-08-01T00:20:01;10.40;;;4.90;;
14088;SDS011;7120;52.890;6.040;2023-08-01T00:22:27;10.60;;;4.80;;
14088;SDS011;7120;52.890;6.040;2023-08-01T00:24:53;10.47;;;4.77;;
14088;SDS011;7120;52.890;6.040;2023-08-01T00:27:18;10.20;;;4.87;;
14088;SDS011;7120;52.890;6.040;2023-08-01T00:29:44;8.33;;;4.77;;
14088;SDS011;7120;52.890;6.040;2023-08-01T00:32:10;16.20;;;5.23;;
14088;SDS011;7120;52.890;6.040;2023-08-01T00:34:36;11.23;;;5.30;;
14088;SDS011;7120;52.890;6.040;2023-08-01T00:37:01;16.03;;;5.63;;
14088;SDS011;7120;52.890;6.040;2023-08-01T00:39:27;8.67;;;4.70;;
14088;SDS011;7120;52.890;6.040;2023-08-01T00:41:52;9.60;;;4.97;;
14088;SDS011;7120;52.890;6.040;2023-08-01T00:44:17;9.63;;;5.07;;
14088;SDS011;7120;52.890;6.040;2023-08-01T00:46:43;9.97;;;5.53;;
14088;SDS011;7120;52.890;6.040;2023-08-01T00:49:09;8.07;;;5.00;;
14088;SDS011;7120;52.890;6.040;2023-08-01T00:51:35;10.77;;;5.57;;
14088;SDS011;7120;52.890;6.040;2023-08-01T00:54:01;10.00;;;5.27;;
14088;SDS011;7120;52.890;6.040;2023-08-01T00:56:26;10.00;;;5.23;;
14088;SDS011;7120;52.890;6.040;2023-08-01T00:58:52;11.10;;;4.83;;
14088;SDS011;7120;52.890;6.040;2023-08-01T01:01:17;7.67;;;4.60;;
14088;SDS011;7120;52.890;6.040;2023-08-01T01:03:42;11.57;;;4.63;;
14088;SDS011;7120;52.890;6.040;2023-08-01T01:06:12;8.97;;;4.97;;
14088;SDS011;7120;52.890;6.040;2023-08-01T01:08:42;8.50;;;5.03;;
14088;SDS011;7120;52.890;6.040;2023-08-01T01:11:08;6.00;;;4.43;;
14088;SDS011;7120;52.890;6.040;2023-08-01T01:13:33;7.93;;;4.83;;
14088;SDS011;7120;52.890;6.040;2023-08-01T01:15:59;8.83;;;5.10;;
14088;SDS011;7120;52.890;6.040;2023-08-01T01:18:24;8.67;;;4.20;;
14088;SDS011;7120;52.890;6.040;2023-08-01T01:20:50;10.37;;;4.37;;
14088;SDS011;7120;52.890;6.040;2023-08-01T01:23:15;10.70;;;5.20;;
14088;SDS011;7120;52.890;6.040;2023-08-01T01:25:42;9.87;;;5.17;;
14088;SDS011;7120;52.890;6.040;2023-08-01T01:28:07;5.87;;;4.77;;
14088;SDS011;7120;52.890;6.040;2023-08-01T01:30:33;8.30;;;5.13;;
14088;SDS011;7120;52.890;6.040;2023-08-01T01:33:00;13.17;;;5.13;;
14088;SDS011;7120;52.890;6.040;2023-08-01T01:35:26;9.17;;;5.10;;
14088;SDS011;7120;52.890;6.040;2023-08-01T01:37:51;9.83;;;5.03;;
14088;SDS011;7120;52.890;6.040;2023-08-01T01:40:17;11.30;;;5.50;;
14088;SDS011;7120;52.890;6.040;2023-08-01T01:42:42;11.63;;;5.47;;
14088;SDS011;7120;52.890;6.040;2023-08-01T01:45:08;9.23;;;5.50;;
14088;SDS011;7120;52.890;6.040;2023-08-01T01:47:34;11.30;;;5.70;;
14088;SDS011;7120;52.890;6.040;2023-08-01T01:49:59;10.50;;;4.97;;
14088;SDS011;7120;52.890;6.040;2023-08-01T01:52:24;11.13;;;4.93;;
14088;SDS011;7120;52.890;6.040;2023-08-01T01:54:50;14.17;;;5.20;;
14088;SDS011;7120;52.890;6.040;2023-08-01T01:57:15;8.27;;;5.33;;
14088;SDS011;7120;52.890;6.040;2023-08-01T01:59:40;10.67;;;5.07;;
14088;SDS011;7120;52.890;6.040;2023-08-01T02:02:06;9.70;;;5.20;;
14088;SDS011;7120;52.890;6.040;2023-08-01T02:04:31;12.93;;;5.73;;
14088;SDS011;7120;52.890;6.040;2023-08-01T02:06:57;13.10;;;5.07;;
14088;SDS011;7120;52.890;6.040;2023-08-01T02:09:22;14.30;;;5.50;;
14088;SDS011;7120;52.890;6.040;2023-08-01T02:11:47;11.27;;;6.07;;
14088;SDS011;7120;52.890;6.040;2023-08-01T02:14:13;13.30;;;5.93;;
14088;SDS011;7120;52.890;6.040;2023-08-01T02:16:39;14.10;;;5.67;;
14088;SDS011;7120;52.890;6.040;2023-08-01T02:19:04;11.07;;;5.80;;
14088;SDS011;7120;52.890;6.040;2023-08-01T02:21:29;16.80;;;5.67;;
14088;SDS011;7120;52.890;6.040;2023-08-01T02:23:55;12.07;;;5.53;;
14088;SDS011;7120;52.890;6.040;2023-08-01T02:26:20;11.77;;;5.27;;
14088;SDS011;7120;52.890;6.040;2023-08-01T02:28:48;8.20;;;5.27;;
14088;SDS011;7120;52.890;6.040;2023-08-01T02:31:13;14.03;;;5.73;;
14088;SDS011;7120;52.890;6.040;2023-08-01T02:33:39;11.03;;;5.27;;
14088;SDS011;7120;52.890;6.040;2023-08-01T02:36:04;11.97;;;5.20;;
14088;SDS011;7120;52.890;6.040;2023-08-01T02:38:29;19.87;;;5.23;;
14088;SDS011;7120;52.890;6.040;2023-08-01T02:40:55;9.07;;;4.33;;
14088;SDS011;7120;52.890;6.040;2023-08-01T02:43:20;2.87;;;2.27;;
14088;SDS011;7120;52.890;6.040;2023-08-01T02:45:46;4.93;;;2.13;;
14088;SDS011;7120;52.890;6.040;2023-08-01T02:48:11;5.17;;;1.73;;
14088;SDS011;7120;52.890;6.040;2023-08-01T02:50:36;7.33;;;1.80;;
14088;SDS011;7120;52.890;6.040;2023-08-01T02:53:02;2.00;;;1.47;;
14088;SDS011;7120;52.890;6.040;2023-08-01T02:55:27;2.67;;;1.30;;
14088;SDS011;7120;52.890;6.040;2023-08-01T02:57:52;2.53;;;1.20;;
14088;SDS011;7120;52.890;6.040;2023-08-01T03:00:18;3.77;;;1.10;;
14088;SDS011;7120;52.890;6.040;2023-08-01T03:02:43;1.60;;;1.13;;
14088;SDS011;7120;52.890;6.040;2023-08-01T03:05:09;2.17;;;1.27;;
14088;SDS011;7120;52.890;6.040;2023-08-01T03:07:34;4.10;;;1.30;;
14088;SDS011;7120;52.890;6.040;2023-08-01T03:10:00;6.20;;;1.30;;
14088;SDS011;7120;52.890;6.040;2023-08-01T03:12:26;4.63;;;1.00;;
14088;SDS011;7120;52.890;6.040;2023-08-01T03:14:51;4.57;;;1.10;;
14088;SDS011;7120;52.890;6.040;2023-08-01T03:17:17;5.03;;;1.50;;
14088;SDS011;7120;52.890;6.040;2023-08-01T03:19:42;6.17;;;1.63;;
14088;SDS011;7120;52.890;6.040;2023-08-01T03:22:08;6.23;;;1.63;;
14088;SDS011;7120;52.890;6.040;2023-08-01T03:24:35;2.50;;;1.37;;
14088;SDS011;7120;52.890;6.040;2023-08-01T03:27:00;3.23;;;1.90;;
14088;SDS011;7120;52.890;6.040;2023-08-01T03:29:26;7.63;;;2.27;;
14088;SDS011;7120;52.890;6.040;2023-08-01T03:31:52;7.73;;;2.47;;
14088;SDS011;7120;52.890;6.040;2023-08-01T03:34:17;6.83;;;2.70;;
14088;SDS011;7120;52.890;6.040;2023-08-01T03:36:43;3.20;;;1.80;;
14088;SDS011;7120;52.890;6.040;2023-08-01T03:39:08;7.40;;;2.23;;
14088;SDS011;7120;52.890;6.040;2023-08-01T03:41:35;6.63;;;2.33;;
14088;SDS011;7120;52.890;6.040;2023-08-01T03:44:01;5.10;;;1.80;;
14088;SDS011;7120;52.890;6.040;2023-08-01T03:46:26;5.20;;;1.80;;
14088;SDS011;7120;52.890;6.040;2023-08-01T03:48:51;5.00;;;1.60;;
14088;SDS011;7120;52.890;6.040;2023-08-01T03:51:17;4.17;;;1.57;;
14088;SDS011;7120;52.890;6.040;2023-08-01T03:53:44;6.10;;;1.60;;
14088;SDS011;7120;52.890;6.040;2023-08-01T03:56:10;4.83;;;1.67;;
14088;SDS011;7120;52.890;6.040;2023-08-01T03:58:36;2.60;;;1.60;;
14088;SDS011;7120;52.890;6.040;2023-08-01T04:01:02;2.80;;;1.73;;
14088;SDS011;7120;52.890;6.040;2023-08-01T04:03:27;4.17;;;1.80;;
14088;SDS011;7120;52.890;6.040;2023-08-01T04:05:53;2.90;;;1.87;;
14088;SDS011;7120;52.890;6.040;2023-08-01T04:08:18;3.97;;;1.50;;
14088;SDS011;7120;52.890;6.040;2023-08-01T04:10:44;3.03;;;1.70;;
14088;SDS011;7120;52.890;6.040;2023-08-01T04:13:09;3.80;;;1.90;;
14088;SDS011;7120;52.890;6.040;2023-08-01T04:15:35;2.93;;;1.70;;
14088;SDS011;7120;52.890;6.040;2023-08-01T04:18:00;8.13;;;2.10;;
14088;SDS011;7120;52.890;6.040;2023-08-01T04:20:25;3.77;;;1.70;;
14088;SDS011;7120;52.890;6.040;2023-08-01T04:22:51;7.33;;;1.63;;
14088;SDS011;7120;52.890;6.040;2023-08-01T04:25:16;2.30;;;2.00;;
14088;SDS011;7120;52.890;6.040;2023-08-01T04:27:43;4.63;;;1.87;;
14088;SDS011;7120;52.890;6.040;2023-08-01T04:30:08;3.73;;;2.20;;
14088;SDS011;7120;52.890;6.040;2023-08-01T04:32:34;3.57;;;1.90;;
14088;SDS011;7120;52.890;6.040;2023-08-01T04:34:59;8.40;;;2.47;;
14088;SDS011;7120;52.890;6.040;2023-08-01T04:37:25;3.80;;;2.00;;
14088;SDS011;7120;52.890;6.040;2023-08-01T04:39:51;6.47;;;1.90;;
14088;SDS011;7120;52.890;6.040;2023-08-01T04:42:16;4.27;;;1.90;;
14088;SDS011;7120;52.890;6.040;2023-08-01T04:44:41;4.73;;;2.27;;
14088;SDS011;7120;52.890;6.040;2023-08-01T04:47:07;6.47;;;2.27;;
14088;SDS011;7120;52.890;6.040;2023-08-01T04:49:32;5.87;;;2.03;;
14088;SDS011;7120;52.890;6.040;2023-08-01T04:51:58;4.77;;;2.00;;
14088;SDS011;7120;52.890;6.040;2023-08-01T04:54:23;2.17;;;1.80;;
14088;SDS011;7120;52.890;6.040;2023-08-01T04:56:49;2.60;;;2.27;;
14088;SDS011;7120;52.890;6.040;2023-08-01T04:59:14;3.17;;;2.10;;
14088;SDS011;7120;52.890;6.040;2023-08-01T05:01:39;4.60;;;2.40;;
14088;SDS011;7120;52.890;6.040;2023-08-01T05:04:05;4.40;;;2.10;;
14088;SDS011;7120;52.890;6.040;2023-08-01T05:06:30;2.73;;;2.20;;
14088;SDS011;7120;52.890;6.040;2023-08-01T05:08:55;3.47;;;2.07;;
14088;SDS011;7120;52.890;6.040;2023-08-01T05:11:21;5.30;;;2.20;;
14088;SDS011;7120;52.890;6.040;2023-08-01T05:13:46;5.30;;;1.80;;
14088;SDS011;7120;52.890;6.040;2023-08-01T05:16:12;5.30;;;2.60;;
14088;SDS011;7120;52.890;6.040;2023-08-01T05:18:37;5.33;;;2.13;;
14088;SDS011;7120;52.890;6.040;2023-08-01T05:21:03;7.77;;;2.83;;
14088;SDS011;7120;52.890;6.040;2023-08-01T05:23:28;3.17;;;2.30;;
14088;SDS011;7120;52.890;6.040;2023-08-01T05:25:54;7.80;;;2.97;;
14088;SDS011;7120;52.890;6.040;2023-08-01T05:28:19;5.50;;;2.00;;
14088;SDS011;7120;52.890;6.040;2023-08-01T05:30:45;4.27;;;2.23;;
14088;SDS011;7120;52.890;6.040;2023-08-01T05:33:10;4.90;;;2.20;;
14088;SDS011;7120;52.890;6.040;2023-08-01T05:35:36;3.77;;;2.23;;
14088;SDS011;7120;52.890;6.040;2023-08-01T05:38:01;5.90;;;2.13;;
14088;SDS011;7120;52.890;6.040;2023-08-01T05:40:26;5.50;;;2.07;;
14088;SDS011;7120;52.890;6.040;2023-08-01T05:42:52;6.40;;;2.23;;
14088;SDS011;7120;52.890;6.040;2023-08-01T05:45:17;3.53;;;1.93;;
14088;SDS011;7120;52.890;6.040;2023-08-01T05:47:43;4.40;;;2.47;;
14088;SDS011;7120;52.890;6.040;2023-08-01T05:50:09;3.43;;;2.00;;
14088;SDS011;7120;52.890;6.040;2023-08-01T05:52:35;5.00;;;2.97;;
14088;SDS011;7120;52.890;6.040;2023-08-01T05:55:01;3.77;;;2.30;;
14088;SDS011;7120;52.890;6.040;2023-08-01T05:57:26;3.90;;;2.30;;
14088;SDS011;7120;52.890;6.040;2023-08-01T05:59:52;7.30;;;2.00;;
14088;SDS011;7120;52.890;6.040;2023-08-01T06:02:18;3.00;;;2.30;;
14088;SDS011;7120;52.890;6.040;2023-08-01T06:04:43;2.07;;;1.73;;
14088;SDS011;7120;52.890;6.040;2023-08-01T06:07:09;2.07;;;1.87;;
14088;SDS011;7120;52.890;6.040;2023-08-01T06:09:34;3.73;;;2.10;;
14088;SDS011;7120;52.890;6.040;2023-08-01T06:12:00;4.20;;;2.00;;
14088;SDS011;7120;52.890;6.040;2023-08-01T06:14:25;4.43;;;2.00;;
14088;SDS011;7120;52.890;6.040;2023-08-01T06:16:51;2.80;;;1.80;;
14088;SDS011;7120;52.890;6.040;2023-08-01T06:19:16;3.57;;;2.00;;
14088;SDS011;7120;52.890;6.040;2023-08-01T06:21:41;2.60;;;1.90;;
14088;SDS011;7120;52.890;6.040;2023-08-01T06:24:07;4.63;;;1.70;;
14088;SDS011;7120;52.890;6.040;2023-08-01T06:26:33;3.13;;;1.47;;
14088;SDS011;7120;52.890;6.040;2023-08-01T06:28:59;3.90;;;1.47;;
14088;SDS011;7120;52.890;6.040;2023-08-01T06:31:25;3.80;;;1.37;;
14088;SDS011;7120;52.890;6.040;2023-08-01T06:33:50;4.07;;;1.30;;
14088;SDS011;7120;52.890;6.040;2023-08-01T06:36:16;3.97;;;1.30;;
14088;SDS011;7120;52.890;6.040;2023-08-01T06:38:42;3.17;;;1.13;;
14088;SDS011;7120;52.890;6.040;2023-08-01T06:41:08;3.20;;;1.23;;
14088;SDS011;7120;52.890;6.040;2023-08-01T06:43:34;1.87;;;1.03;;
14088;SDS011;7120;52.890;6.040;2023-08-01T06:45:59;1.63;;;0.70;;
14088;SDS011;7120;52.890;6.040;2023-08-01T06:48:24;3.03;;;1.03;;
14088;SDS011;7120;52.890;6.040;2023-08-01T06:50:50;2.30;;;1.20;;
14088;SDS011;7120;52.890;6.040;2023-08-01T06:53:16;4.07;;;0.90;;
14088;SDS011;7120;52.890;6.040;2023-08-01T06:55:41;3.10;;;1.00;;
14088;SDS011;7120;52.890;6.040;2023-08-01T06:58:06;2.50;;;1.03;;
14088;SDS011;7120;52.890;6.040;2023-08-01T07:00:32;2.60;;;1.03;;
14088;SDS011;7120;52.890;6.040;2023-08-01T07:02:57;3.30;;;1.50;;
14088;SDS011;7120;52.890;6.040;2023-08-01T07:05:23;5.27;;;1.40;;
14088;SDS011;7120;52.890;6.040;2023-08-01T07:07:48;5.40;;;1.80;;
14088;SDS011;7120;52.890;6.040;2023-08-01T07:10:14;4.30;;;2.40;;
14088;SDS011;7120;52.890;6.040;2023-08-01T07:12:39;4.80;;;1.70;;
14088;SDS011;7120;52.890;6.040;2023-08-01T07:15:05;6.60;;;2.13;;
14088;SDS011;7120;52.890;6.040;2023-08-01T07:17:31;3.53;;;1.73;;
14088;SDS011;7120;52.890;6.040;2023-08-01T07:19:56;3.47;;;2.00;;
14088;SDS011;7120;52.890;6.040;2023-08-01T07:22:21;5.03;;;1.93;;
14088;SDS011;7120;52.890;6.040;2023-08-01T07:24:47;2.63;;;1.90;;
14088;SDS011;7120;52.890;6.040;2023-08-01T07:27:12;5.17;;;2.63;;
14088;SDS011;7120;52.890;6.040;2023-08-01T07:29:37;4.67;;;2.03;;
14088;SDS011;7120;52.890;6.040;2023-08-01T07:32:03;3.27;;;1.70;;
14088;SDS011;7120;52.890;6.040;2023-08-01T07:34:29;4.20;;;1.63;;
14088;SDS011;7120;52.890;6.040;2023-08-01T07:36:54;7.33;;;1.67;;
14088;SDS011;7120;52.890;6.040;2023-08-01T07:39:20;3.63;;;1.73;;
14088;SDS011;7120;52.890;6.040;2023-08-01T07:41:45;4.00;;;1.40;;
14088;SDS011;7120;52.890;6.040;2023-08-01T07:44:11;4.00;;;1.70;;
14088;SDS011;7120;52.890;6.040;2023-08-01T07:46:36;1.50;;;1.40;;
14088;SDS011;7120;52.890;6.040;2023-08-01T07:49:01;4.60;;;1.90;;
14088;SDS011;7120;52.890;6.040;2023-08-01T07:51:27;3.73;;;2.00;;
14088;SDS011;7120;52.890;6.040;2023-08-01T07:53:53;4.00;;;2.40;;
14088;SDS011;7120;52.890;6.040;2023-08-01T07:56:19;4.17;;;1.97;;
14088;SDS011;7120;52.890;6.040;2023-08-01T07:58:44;4.73;;;1.80;;
14088;SDS011;7120;52.890;6.040;2023-08-01T08:01:10;4.60;;;2.03;;
14088;SDS011;7120;52.890;6.040;2023-08-01T08:03:35;8.40;;;2.67;;
14088;SDS011;7120;52.890;6.040;2023-08-01T08:06:01;4.67;;;3.17;;
14088;SDS011;7120;52.890;6.040;2023-08-01T08:08:28;6.57;;;2.30;;
14088;SDS011;7120;52.890;6.040;2023-08-01T08:10:53;8.27;;;2.97;;
14088;SDS011;7120;52.890;6.040;2023-08-01T08:13:19;8.20;;;3.40;;
14088;SDS011;7120;52.890;6.040;2023-08-01T08:15:45;5.80;;;3.27;;
14088;SDS011;7120;52.890;6.040;2023-08-01T08:18:11;9.97;;;4.00;;
14088;SDS011;7120;52.890;6.040;2023-08-01T08:20:43;9.57;;;4.20;;
14088;SDS011;7120;52.890;6.040;2023-08-01T08:23:10;6.33;;;3.77;;
14088;SDS011;7120;52.890;6.040;2023-08-01T08:25:36;9.30;;;4.00;;
14088;SDS011;7120;52.890;6.040;2023-08-01T08:28:02;7.50;;;4.20;;
14088;SDS011;7120;52.890;6.040;2023-08-01T08:30:27;9.83;;;4.47;;
14088;SDS011;7120;52.890;6.040;2023-08-01T08:32:53;11.37;;;3.73;;
14088;SDS011;7120;52.890;6.040;2023-08-01T08:35:18;7.57;;;3.77;;
14088;SDS011;7120;52.890;6.040;2023-08-01T08:37:43;7.70;;;3.57;;
14088;SDS011;7120;52.890;6.040;2023-08-01T08:40:09;9.53;;;3.77;;
14088;SDS011;7120;52.890;6.040;2023-08-01T08:42:35;11.53;;;4.13;;
14088;SDS011;7120;52.890;6.040;2023-08-01T08:45:01;8.03;;;3.70;;
14088;SDS011;7120;52.890;6.040;2023-08-01T08:47:27;6.97;;;3.87;;
14088;SDS011;7120;52.890;6.040;2023-08-01T08:49:55;8.07;;;4.30;;
14088;SDS011;7120;52.890;6.040;2023-08-01T08:52:24;6.30;;;2.80;;
14088;SDS011;7120;52.890;6.040;2023-08-01T08:54:51;7.60;;;2.57;;
14088;SDS011;7120;52.890;6.040;2023-08-01T08:57:16;5.17;;;2.73;;
14088;SDS011;7120;52.890;6.040;2023-08-01T08:59:44;3.57;;;2.60;;
14088;SDS011;7120;52.890;6.040;2023-08-01T09:02:10;4.63;;;1.90;;
14088;SDS011;7120;52.890;6.040;2023-08-01T09:04:35;5.17;;;2.13;;
14088;SDS011;7120;52.890;6.040;2023-08-01T09:07:06;3.77;;;1.83;;
14088;SDS011;7120;52.890;6.040;2023-08-01T09:09:34;5.57;;;2.03;;
14088;SDS011;7120;52.890;6.040;2023-08-01T09:11:59;3.27;;;1.50;;
14088;SDS011;7120;52.890;6.040;2023-08-01T09:14:25;4.00;;;1.80;;
14088;SDS011;7120;52.890;6.040;2023-08-01T09:16:51;4.87;;;1.70;;
14088;SDS011;7120;52.890;6.040;2023-08-01T09:19:23;6.17;;;1.77;;
14088;SDS011;7120;52.890;6.040;2023-08-01T09:21:50;3.77;;;1.43;;
14088;SDS011;7120;52.890;6.040;2023-08-01T09:24:19;4.03;;;1.57;;
14088;SDS011;7120;52.890;6.040;2023-08-01T09:26:46;4.27;;;1.60;;
14088;SDS011;7120;52.890;6.040;2023-08-01T09:29:15;2.53;;;1.67;;
14088;SDS011;7120;52.890;6.040;2023-08-01T09:31:42;2.67;;;1.63;;
14088;SDS011;7120;52.890;6.040;2023-08-01T09:34:21;4.93;;;1.63;;
14088;SDS011;7120;52.890;6.040;2023-08-01T09:36:48;3.30;;;1.67;;
14088;SDS011;7120;52.890;6.040;2023-08-01T09:39:18;3.90;;;1.60;;
14088;SDS011;7120;52.890;6.040;2023-08-01T09:41:44;3.03;;;1.80;;
14088;SDS011;7120;52.890;6.040;2023-08-01T09:44:11;3.77;;;1.90;;
14088;SDS011;7120;52.890;6.040;2023-08-01T09:46:37;3.67;;;1.63;;
14088;SDS011;7120;52.890;6.040;2023-08-01T09:49:06;2.57;;;1.37;;
14088;SDS011;7120;52.890;6.040;2023-08-01T09:51:33;2.87;;;1.53;;
14088;SDS011;7120;52.890;6.040;2023-08-01T09:53:58;2.47;;;1.47;;
14088;SDS011;7120;52.890;6.040;2023-08-01T09:56:24;1.90;;;1.60;;
14088;SDS011;7120;52.890;6.040;2023-08-01T09:58:51;4.27;;;1.60;;
14088;SDS011;7120;52.890;6.040;2023-08-01T10:01:19;2.47;;;1.30;;
14088;SDS011;7120;52.890;6.040;2023-08-01T10:03:47;5.10;;;1.77;;
14088;SDS011;7120;52.890;6.040;2023-08-01T10:06:17;4.03;;;1.50;;
14088;SDS011;7120;52.890;6.040;2023-08-01T10:08:46;5.80;;;2.17;;
14088;SDS011;7120;52.890;6.040;2023-08-01T10:11:17;4.90;;;1.67;;
14088;SDS011;7120;52.890;6.040;2023-08-01T10:13:45;3.97;;;1.80;;
14088;SDS011;7120;52.890;6.040;2023-08-01T10:16:13;3.23;;;1.70;;
14088;SDS011;7120;52.890;6.040;2023-08-01T10:18:40;2.50;;;1.57;;
14088;SDS011;7120;52.890;6.040;2023-08-01T10:21:06;5.57;;;2.00;;
14088;SDS011;7120;52.890;6.040;2023-08-01T10:23:33;5.37;;;1.83;;
14088;SDS011;7120;52.890;6.040;2023-08-01T10:26:00;3.53;;;1.43;;
14088;SDS011;7120;52.890;6.040;2023-08-01T10:28:37;5.10;;;1.43;;
14088;SDS011;7120;52.890;6.040;2023-08-01T10:31:22;4.47;;;1.40;;
14088;SDS011;7120;52.890;6.040;2023-08-01T10:33:48;4.13;;;1.43;;
14088;SDS011;7120;52.890;6.040;2023-08-01T10:36:14;4.03;;;1.67;;
14088;SDS011;7120;52.890;6.040;2023-08-01T10:38:46;4.57;;;1.50;;
14088;SDS011;7120;52.890;6.040;2023-08-01T10:44:03;3.10;;;1.40;;
14088;SDS011;7120;52.890;6.040;2023-08-01T10:49:18;3.70;;;1.63;;
14088;SDS011;7120;52.890;6.040;2023-08-01T10:51:46;4.43;;;1.80;;
14088;SDS011;7120;52.890;6.040;2023-08-01T10:54:24;2.10;;;1.30;;
14088;SDS011;7120;52.890;6.040;2023-08-01T10:56:51;3.43;;;1.80;;
14088;SDS011;7120;52.890;6.040;2023-08-01T10:59:18;5.97;;;1.70;;
14088;SDS011;7120;52.890;6.040;2023-08-01T11:01:48;3.60;;;1.40;;
14088;SDS011;7120;52.890;6.040;2023-08-01T11:04:15;3.40;;;1.37;;
14088;SDS011;7120;52.890;6.040;2023-08-01T11:06:51;4.77;;;1.33;;
14088;SDS011;7120;52.890;6.040;2023-08-01T11:09:21;4.83;;;1.40;;
14088;SDS011;7120;52.890;6.040;2023-08-01T11:11:49;4.00;;;1.60;;
14088;SDS011;7120;52.890;6.040;2023-08-01T11:14:18;5.43;;;1.50;;
14088;SDS011;7120;52.890;6.040;2023-08-01T11:16:45;2.80;;;1.47;;
14088;SDS011;7120;52.890;6.040;2023-08-01T11:19:22;1.53;;;1.23;;
14088;SDS011;7120;52.890;6.040;2023-08-01T11:21:52;5.40;;;1.50;;
14088;SDS011;7120;52.890;6.040;2023-08-01T11:24:18;2.47;;;1.10;;
14088;SDS011;7120;52.890;6.040;2023-08-01T11:26:45;7.10;;;1.43;;
14088;SDS011;7120;52.890;6.040;2023-08-01T11:29:13;3.83;;;1.47;;
14088;SDS011;7120;52.890;6.040;2023-08-01T11:31:39;2.73;;;1.30;;
14088;SDS011;7120;52.890;6.040;2023-08-01T11:34:08;3.50;;;1.67;;
14088;SDS011;7120;52.890;6.040;2023-08-01T11:36:35;3.13;;;1.60;;
14088;SDS011;7120;52.890;6.040;2023-08-01T11:39:01;4.27;;;1.50;;
14088;SDS011;7120;52.890;6.040;2023-08-01T11:41:27;5.13;;;1.57;;
14088;SDS011;7120;52.890;6.040;2023-08-01T11:43:55;3.47;;;1.30;;
14088;SDS011;7120;52.890;6.040;2023-08-01T11:46:30;3.53;;;1.57;;
14088;SDS011;7120;52.890;6.040;2023-08-01T11:48:57;4.70;;;1.60;;
14088;SDS011;7120;52.890;6.040;2023-08-01T11:51:23;6.27;;;1.63;;
14088;SDS011;7120;52.890;6.040;2023-08-01T11:54:02;3.13;;;1.30;;
14088;SDS011;7120;52.890;6.040;2023-08-01T11:56:28;6.87;;;1.90;;
14088;SDS011;7120;52.890;6.040;2023-08-01T11:58:54;2.87;;;1.43;;
14088;SDS011;7120;52.890;6.040;2023-08-01T12:01:20;2.37;;;1.30;;
14088;SDS011;7120;52.890;6.040;2023-08-01T12:03:46;1.40;;;0.90;;
14088;SDS011;7120;52.890;6.040;2023-08-01T12:06:19;3.33;;;1.10;;
14088;SDS011;7120;52.890;6.040;2023-08-01T12:08:47;2.13;;;1.37;;
14088;SDS011;7120;52.890;6.040;2023-08-01T12:13:47;2.20;;;1.43;;
14088;SDS011;7120;52.890;6.040;2023-08-01T12:16:13;4.33;;;1.80;;
14088;SDS011;7120;52.890;6.040;2023-08-01T12:18:45;4.43;;;1.60;;
14088;SDS011;7120;52.890;6.040;2023-08-01T12:21:12;3.57;;;1.67;;
14088;SDS011;7120;52.890;6.040;2023-08-01T12:23:37;3.47;;;1.50;;
14088;SDS011;7120;52.890;6.040;2023-08-01T12:26:03;4.30;;;1.60;;
14088;SDS011;7120;52.890;6.040;2023-08-01T12:28:28;3.20;;;1.33;;
14088;SDS011;7120;52.890;6.040;2023-08-01T12:30:54;2.30;;;1.43;;
14088;SDS011;7120;52.890;6.040;2023-08-01T12:33:19;1.80;;;1.40;;
14088;SDS011;7120;52.890;6.040;2023-08-01T12:35:46;3.87;;;1.63;;
14088;SDS011;7120;52.890;6.040;2023-08-01T12:38:12;2.97;;;1.60;;
14088;SDS011;7120;52.890;6.040;2023-08-01T12:40:37;3.03;;;1.90;;
14088;SDS011;7120;52.890;6.040;2023-08-01T12:43:02;4.57;;;1.70;;
14088;SDS011;7120;52.890;6.040;2023-08-01T12:45:28;3.47;;;1.53;;
14088;SDS011;7120;52.890;6.040;2023-08-01T12:47:53;3.77;;;1.37;;
14088;SDS011;7120;52.890;6.040;2023-08-01T12:50:18;5.47;;;1.70;;
14088;SDS011;7120;52.890;6.040;2023-08-01T12:52:44;2.93;;;1.67;;
14088;SDS011;7120;52.890;6.040;2023-08-01T12:55:09;3.53;;;1.93;;
14088;SDS011;7120;52.890;6.040;2023-08-01T12:57:35;3.47;;;1.60;;
14088;SDS011;7120;52.890;6.040;2023-08-01T13:00:00;1.83;;;1.20;;
14088;SDS011;7120;52.890;6.040;2023-08-01T13:02:26;4.43;;;1.00;;
14088;SDS011;7120;52.890;6.040;2023-08-01T13:04:52;2.97;;;1.10;;
14088;SDS011;7120;52.890;6.040;2023-08-01T13:07:18;2.47;;;1.10;;
14088;SDS011;7120;52.890;6.040;2023-08-01T13:09:43;3.07;;;1.47;;
14088;SDS011;7120;52.890;6.040;2023-08-01T13:12:08;2.23;;;1.27;;
14088;SDS011;7120;52.890;6.040;2023-08-01T13:14:34;2.30;;;1.10;;
14088;SDS011;7120;52.890;6.040;2023-08-01T13:16:59;4.07;;;1.00;;
14088;SDS011;7120;52.890;6.040;2023-08-01T13:19:25;1.60;;;0.93;;
14088;SDS011;7120;52.890;6.040;2023-08-01T13:21:50;1.57;;;1.03;;
14088;SDS011;7120;52.890;6.040;2023-08-01T13:24:16;2.90;;;0.83;;
14088;SDS011;7120;52.890;6.040;2023-08-01T13:26:42;1.20;;;1.07;;
14088;SDS011;7120;52.890;6.040;2023-08-01T13:29:07;3.13;;;1.20;;
14088;SDS011;7120;52.890;6.040;2023-08-01T13:31:32;3.13;;;1.30;;
14088;SDS011;7120;52.890;6.040;2023-08-01T13:33:58;2.27;;;1.20;;
14088;SDS011;7120;52.890;6.040;2023-08-01T13:36:23;2.13;;;1.23;;
14088;SDS011;7120;52.890;6.040;2023-08-01T13:38:49;2.60;;;1.30;;
14088;SDS011;7120;52.890;6.040;2023-08-01T13:41:14;3.63;;;1.40;;
14088;SDS011;7120;52.890;6.040;2023-08-01T13:43:40;4.83;;;1.33;;
14088;SDS011;7120;52.890;6.040;2023-08-01T13:46:12;2.43;;;1.20;;
14088;SDS011;7120;52.890;6.040;2023-08-01T13:48:40;2.20;;;1.40;;
14088;SDS011;7120;52.890;6.040;2023-08-01T13:51:06;1.90;;;1.03;;
14088;SDS011;7120;52.890;6.040;2023-08-01T13:53:31;2.90;;;1.30;;
14088;SDS011;7120;52.890;6.040;2023-08-01T13:55:57;1.77;;;1.30;;
14088;SDS011;7120;52.890;6.040;2023-08-01T13:58:22;3.67;;;1.50;;
14088;SDS011;7120;52.890;6.040;2023-08-01T14:00:47;1.33;;;1.20;;
14088;SDS011;7120;52.890;6.040;2023-08-01T14:03:13;1.60;;;1.40;;
14088;SDS011;7120;52.890;6.040;2023-08-01T14:05:38;2.20;;;1.40;;
14088;SDS011;7120;52.890;6.040;2023-08-01T14:08:03;4.63;;;1.70;;
14088;SDS011;7120;52.890;6.040;2023-08-01T14:10:30;1.77;;;1.50;;
14088;SDS011;7120;52.890;6.040;2023-08-01T14:12:55;3.90;;;1.50;;
14088;SDS011;7120;52.890;6.040;2023-08-01T14:15:21;2.13;;;1.70;;
14088;SDS011;7120;52.890;6.040;2023-08-01T14:17:46;3.23;;;1.70;;
14088;SDS011;7120;52.890;6.040;2023-08-01T14:20:12;3.27;;;1.77;;
14088;SDS011;7120;52.890;6.040;2023-08-01T14:22:37;4.23;;;1.70;;
14088;SDS011;7120;52.890;6.040;2023-08-01T14:25:03;2.83;;;1.43;;
14088;SDS011;7120;52.890;6.040;2023-08-01T14:27:29;3.90;;;1.30;;
14088;SDS011;7120;52.890;6.040;2023-08-01T14:29:55;1.43;;;1.20;;
14088;SDS011;7120;52.890;6.040;2023-08-01T14:32:20;3.63;;;1.00;;
14088;SDS011;7120;52.890;6.040;2023-08-01T14:34:46;1.63;;;1.17;;
14088;SDS011;7120;52.890;6.040;2023-08-01T14:37:11;1.90;;;1.00;;
14088;SDS011;7120;52.890;6.040;2023-08-01T14:39:36;1.77;;;1.10;;
14088;SDS011;7120;52.890;6.040;2023-08-01T14:42:02;2.73;;;1.27;;
14088;SDS011;7120;52.890;6.040;2023-08-01T14:44:27;2.27;;;1.50;;
14088;SDS011;7120;52.890;6.040;2023-08-01T14:46:53;3.50;;;1.70;;
14088;SDS011;7120;52.890;6.040;2023-08-01T14:49:19;2.20;;;1.60;;
14088;SDS011;7120;52.890;6.040;2023-08-01T14:51:46;5.03;;;1.90;;
14088;SDS011;7120;52.890;6.040;2023-08-01T14:54:12;2.17;;;1.80;;
14088;SDS011;7120;52.890;6.040;2023-08-01T14:56:37;4.33;;;2.27;;
14088;SDS011;7120;52.890;6.040;2023-08-01T14:59:03;5.50;;;2.43;;
14088;SDS011;7120;52.890;6.040;2023-08-01T15:01:28;4.83;;;2.30;;